sensor_id;sensor_type;location;lat;lon;timestamp;temperature;humidity
21189;DHT22;39071;52.420;20.896;2022-11-03T00:01:53;10.10;1.00
21189;DHT22;39071;52.420;20.896;2022-11-03T00:04:20;10.10;1.00
21189;DHT22;39071;52.420;20.896;2022-11-03T00:06:50;10.00;1.00
21189;DHT22;39071;52.420;20.896;2022-11-03T00:09:17;10.00;1.00
21189;DHT22;39071;52.420;20.896;2022-11-03T00:11:45;10.00;99.90
21189;DHT22;39071;52.420;20.896;2022-11-03T00:14:11;9.90;16.00
21189;DHT22;39071;52.420;20.896;2022-11-03T00:16:38;9.90;1.00
21189;DHT22;39071;52.420;20.896;2022-11-03T00:19:05;9.80;1.00
21189;DHT22;39071;52.420;20.896;2022-11-03T00:21:31;9.80;47.70
21189;DHT22;39071;52.420;20.896;2022-11-03T00:23:57;9.70;20.60
21189;DHT22;39071;52.420;20.896;2022-11-03T00:26:24;9.60;1.00
21189;DHT22;39071;52.420;20.896;2022-11-03T00:28:58;9.60;99.90
21189;DHT22;39071;52.420;20.896;2022-11-03T00:31:32;9.60;99.90
21189;DHT22;39071;52.420;20.896;2022-11-03T00:33:59;9.50;99.90
21189;DHT22;39071;52.420;20.896;2022-11-03T00:36:27;9.50;99.90
21189;DHT22;39071;52.420;20.896;2022-11-03T00:38:53;9.40;1.00
21189;DHT22;39071;52.420;20.896;2022-11-03T00:41:20;9.40;1.00
21189;DHT22;39071;52.420;20.896;2022-11-03T00:43:47;9.30;1.00
21189;DHT22;39071;52.420;20.896;2022-11-03T00:46:15;9.30;1.00
21189;DHT22;39071;52.420;20.896;2022-11-03T00:48:41;9.30;1.00
21189;DHT22;39071;52.420;20.896;2022-11-03T00:51:21;9.30;1.00
21189;DHT22;39071;52.420;20.896;2022-11-03T00:53:50;9.20;1.00
21189;DHT22;39071;52.420;20.896;2022-11-03T00:56:20;9.20;99.90
21189;DHT22;39071;52.420;20.896;2022-11-03T00:58:47;9.20;99.90
21189;DHT22;39071;52.420;20.896;2022-11-03T01:01:16;9.10;4.10
21189;DHT22;39071;52.420;20.896;2022-11-03T01:03:44;9.10;1.00
21189;DHT22;39071;52.420;20.896;2022-11-03T01:06:32;9.10;1.00
21189;DHT22;39071;52.420;20.896;2022-11-03T01:14:16;9.00;1.00
21189;DHT22;39071;52.420;20.896;2022-11-03T01:16:42;8.90;1.00
21189;DHT22;39071;52.420;20.896;2022-11-03T01:19:08;8.90;1.00
21189;DHT22;39071;52.420;20.896;2022-11-03T01:21:34;8.90;1.00
21189;DHT22;39071;52.420;20.896;2022-11-03T01:24:01;8.90;96.90
21189;DHT22;39071;52.420;20.896;2022-11-03T01:26:27;8.80;99.90
21189;DHT22;39071;52.420;20.896;2022-11-03T01:28:53;8.80;99.90
21189;DHT22;39071;52.420;20.896;2022-11-03T01:31:21;8.80;99.90
21189;DHT22;39071;52.420;20.896;2022-11-03T01:33:49;8.80;99.90
21189;DHT22;39071;52.420;20.896;2022-11-03T01:36:16;8.80;99.90
21189;DHT22;39071;52.420;20.896;2022-11-03T01:38:42;8.70;99.90
21189;DHT22;39071;52.420;20.896;2022-11-03T01:41:17;8.70;1.00
21189;DHT22;39071;52.420;20.896;2022-11-03T01:43:43;8.70;1.00
21189;DHT22;39071;52.420;20.896;2022-11-03T01:48:45;8.60;1.00
21189;DHT22;39071;52.420;20.896;2022-11-03T01:51:15;8.50;1.00
21189;DHT22;39071;52.420;20.896;2022-11-03T01:53:44;8.50;1.00
21189;DHT22;39071;52.420;20.896;2022-11-03T01:56:12;8.50;40.00
21189;DHT22;39071;52.420;20.896;2022-11-03T01:58:41;8.50;1.00
21189;DHT22;39071;52.420;20.896;2022-11-03T02:01:09;8.50;1.00
21189;DHT22;39071;52.420;20.896;2022-11-03T02:03:40;8.40;1.00
21189;DHT22;39071;52.420;20.896;2022-11-03T02:06:07;8.40;99.90
21189;DHT22;39071;52.420;20.896;2022-11-03T02:11:05;8.30;99.90
21189;DHT22;39071;52.420;20.896;2022-11-03T02:13:51;8.20;99.90
21189;DHT22;39071;52.420;20.896;2022-11-03T02:16:18;8.10;99.90
21189;DHT22;39071;52.420;20.896;2022-11-03T02:18:44;8.10;97.00
21189;DHT22;39071;52.420;20.896;2022-11-03T02:21:58;8.00;99.90
21189;DHT22;39071;52.420;20.896;2022-11-03T02:26:50;7.90;1.00
21189;DHT22;39071;52.420;20.896;2022-11-03T02:29:18;7.80;1.00
21189;DHT22;39071;52.420;20.896;2022-11-03T02:32:05;7.70;1.00
21189;DHT22;39071;52.420;20.896;2022-11-03T02:37:28;7.60;99.90
21189;DHT22;39071;52.420;20.896;2022-11-03T02:40:03;7.60;99.90
21189;DHT22;39071;52.420;20.896;2022-11-03T02:42:30;7.50;99.90
21189;DHT22;39071;52.420;20.896;2022-11-03T02:45:00;7.50;95.40
21189;DHT22;39071;52.420;20.896;2022-11-03T02:47:28;7.40;1.00
21189;DHT22;39071;52.420;20.896;2022-11-03T02:49:55;7.40;1.00
21189;DHT22;39071;52.420;20.896;2022-11-03T02:52:40;7.30;1.00
21189;DHT22;39071;52.420;20.896;2022-11-03T03:00:31;7.20;1.00
21189;DHT22;39071;52.420;20.896;2022-11-03T03:03:09;7.20;1.00
21189;DHT22;39071;52.420;20.896;2022-11-03T03:05:37;7.10;1.00
21189;DHT22;39071;52.420;20.896;2022-11-03T03:08:06;7.10;1.00
21189;DHT22;39071;52.420;20.896;2022-11-03T03:10:38;7.10;1.00
21189;DHT22;39071;52.420;20.896;2022-11-03T03:13:06;7.10;1.00
21189;DHT22;39071;52.420;20.896;2022-11-03T03:16:03;7.00;1.00
21189;DHT22;39071;52.420;20.896;2022-11-03T03:21:21;7.00;99.90
21189;DHT22;39071;52.420;20.896;2022-11-03T03:23:58;6.90;99.90
21189;DHT22;39071;52.420;20.896;2022-11-03T03:26:35;6.90;99.90
21189;DHT22;39071;52.420;20.896;2022-11-03T03:29:14;6.90;99.90
21189;DHT22;39071;52.420;20.896;2022-11-03T03:31:44;6.90;26.30
21189;DHT22;39071;52.420;20.896;2022-11-03T03:34:14;6.90;41.40
21189;DHT22;39071;52.420;20.896;2022-11-03T03:36:43;6.80;99.90
21189;DHT22;39071;52.420;20.896;2022-11-03T03:39:11;6.80;99.90
21189;DHT22;39071;52.420;20.896;2022-11-03T03:41:39;6.80;99.90
21189;DHT22;39071;52.420;20.896;2022-11-03T03:44:06;6.80;99.90
21189;DHT22;39071;52.420;20.896;2022-11-03T03:46:38;6.80;99.90
21189;DHT22;39071;52.420;20.896;2022-11-03T03:49:05;6.80;98.10
21189;DHT22;39071;52.420;20.896;2022-11-03T03:51:32;6.80;62.40
21189;DHT22;39071;52.420;20.896;2022-11-03T03:53:58;6.80;54.50
21189;DHT22;39071;52.420;20.896;2022-11-03T03:56:48;6.80;37.70
21189;DHT22;39071;52.420;20.896;2022-11-03T03:59:15;6.70;96.50
21189;DHT22;39071;52.420;20.896;2022-11-03T04:01:40;6.70;99.90
21189;DHT22;39071;52.420;20.896;2022-11-03T04:04:06;6.60;99.90
21189;DHT22;39071;52.420;20.896;2022-11-03T04:06:32;6.60;99.90
21189;DHT22;39071;52.420;20.896;2022-11-03T04:08:57;6.60;99.90
21189;DHT22;39071;52.420;20.896;2022-11-03T04:11:23;6.60;99.90
21189;DHT22;39071;52.420;20.896;2022-11-03T04:14:08;6.60;99.90
21189;DHT22;39071;52.420;20.896;2022-11-03T04:16:53;6.50;99.90
21189;DHT22;39071;52.420;20.896;2022-11-03T04:19:37;6.50;99.90
21189;DHT22;39071;52.420;20.896;2022-11-03T04:22:22;6.50;99.90
21189;DHT22;39071;52.420;20.896;2022-11-03T04:24:50;6.50;1.00
21189;DHT22;39071;52.420;20.896;2022-11-03T04:27:29;6.50;1.00
21189;DHT22;39071;52.420;20.896;2022-11-03T04:30:01;6.50;1.00
21189;DHT22;39071;52.420;20.896;2022-11-03T04:32:28;6.50;1.00
21189;DHT22;39071;52.420;20.896;2022-11-03T04:34:54;6.40;1.00
21189;DHT22;39071;52.420;20.896;2022-11-03T04:37:20;6.40;1.00
21189;DHT22;39071;52.420;20.896;2022-11-03T04:39:45;6.40;1.00
21189;DHT22;39071;52.420;20.896;2022-11-03T04:42:20;6.40;1.00
21189;DHT22;39071;52.420;20.896;2022-11-03T04:44:47;6.40;1.00
21189;DHT22;39071;52.420;20.896;2022-11-03T04:47:15;6.30;1.00
21189;DHT22;39071;52.420;20.896;2022-11-03T04:49:42;6.40;1.00
21189;DHT22;39071;52.420;20.896;2022-11-03T04:52:34;6.40;1.00
21189;DHT22;39071;52.420;20.896;2022-11-03T04:55:00;6.40;1.00
21189;DHT22;39071;52.420;20.896;2022-11-03T04:57:27;6.40;1.00
21189;DHT22;39071;52.420;20.896;2022-11-03T04:59:52;6.40;1.00
21189;DHT22;39071;52.420;20.896;2022-11-03T05:02:20;6.30;1.00
21189;DHT22;39071;52.420;20.896;2022-11-03T05:04:46;6.30;1.00
21189;DHT22;39071;52.420;20.896;2022-11-03T05:07:27;6.30;1.00
21189;DHT22;39071;52.420;20.896;2022-11-03T05:09:53;6.30;1.00
21189;DHT22;39071;52.420;20.896;2022-11-03T05:12:20;6.30;1.00
21189;DHT22;39071;52.420;20.896;2022-11-03T05:14:46;6.30;1.00
21189;DHT22;39071;52.420;20.896;2022-11-03T05:17:25;6.20;1.00
21189;DHT22;39071;52.420;20.896;2022-11-03T05:19:56;6.20;1.00
21189;DHT22;39071;52.420;20.896;2022-11-03T05:22:23;6.20;1.00
21189;DHT22;39071;52.420;20.896;2022-11-03T05:24:59;6.20;1.00
21189;DHT22;39071;52.420;20.896;2022-11-03T05:27:25;6.20;1.00
21189;DHT22;39071;52.420;20.896;2022-11-03T05:29:52;6.20;1.00
21189;DHT22;39071;52.420;20.896;2022-11-03T05:32:23;6.20;1.00
21189;DHT22;39071;52.420;20.896;2022-11-03T05:34:51;6.20;1.00
21189;DHT22;39071;52.420;20.896;2022-11-03T05:37:28;6.70;1.00
21189;DHT22;39071;52.420;20.896;2022-11-03T05:42:45;6.10;1.00
21189;DHT22;39071;52.420;20.896;2022-11-03T05:45:16;6.10;1.00
21189;DHT22;39071;52.420;20.896;2022-11-03T05:47:45;6.10;1.00
21189;DHT22;39071;52.420;20.896;2022-11-03T05:50:16;6.00;1.00
21189;DHT22;39071;52.420;20.896;2022-11-03T05:52:45;6.00;1.00
21189;DHT22;39071;52.420;20.896;2022-11-03T05:55:29;6.00;1.00
21189;DHT22;39071;52.420;20.896;2022-11-03T05:58:04;6.00;1.00
21189;DHT22;39071;52.420;20.896;2022-11-03T06:00:34;6.00;1.00
21189;DHT22;39071;52.420;20.896;2022-11-03T06:03:01;6.00;1.00
21189;DHT22;39071;52.420;20.896;2022-11-03T06:05:27;6.00;1.00
21189;DHT22;39071;52.420;20.896;2022-11-03T06:07:55;6.00;1.00
21189;DHT22;39071;52.420;20.896;2022-11-03T06:10:27;6.00;1.00
21189;DHT22;39071;52.420;20.896;2022-11-03T06:12:58;6.00;1.00
21189;DHT22;39071;52.420;20.896;2022-11-03T06:15:32;6.00;1.00
21189;DHT22;39071;52.420;20.896;2022-11-03T06:17:59;6.10;1.00
21189;DHT22;39071;52.420;20.896;2022-11-03T06:20:27;6.20;1.00
21189;DHT22;39071;52.420;20.896;2022-11-03T06:22:54;6.20;70.60
21189;DHT22;39071;52.420;20.896;2022-11-03T06:25:27;6.20;99.90
21189;DHT22;39071;52.420;20.896;2022-11-03T06:27:59;6.30;99.90
21189;DHT22;39071;52.420;20.896;2022-11-03T06:30:34;6.40;1.00
21189;DHT22;39071;52.420;20.896;2022-11-03T06:33:14;6.40;1.00
21189;DHT22;39071;52.420;20.896;2022-11-03T06:35:42;6.50;31.50
21189;DHT22;39071;52.420;20.896;2022-11-03T06:38:16;6.60;99.90
21189;DHT22;39071;52.420;20.896;2022-11-03T06:40:43;6.70;99.90
21189;DHT22;39071;52.420;20.896;2022-11-03T06:43:42;6.90;1.00
21189;DHT22;39071;52.420;20.896;2022-11-03T06:46:23;6.90;1.00
21189;DHT22;39071;52.420;20.896;2022-11-03T06:48:50;7.00;99.90
21189;DHT22;39071;52.420;20.896;2022-11-03T06:51:21;7.10;1.00
21189;DHT22;39071;52.420;20.896;2022-11-03T06:53:52;7.20;1.00
21189;DHT22;39071;52.420;20.896;2022-11-03T06:56:22;7.30;1.00
21189;DHT22;39071;52.420;20.896;2022-11-03T06:58:51;7.40;99.90
21189;DHT22;39071;52.420;20.896;2022-11-03T07:01:21;7.50;1.00
21189;DHT22;39071;52.420;20.896;2022-11-03T07:03:50;7.60;3.30
21189;DHT22;39071;52.420;20.896;2022-11-03T07:06:20;7.70;1.00
21189;DHT22;39071;52.420;20.896;2022-11-03T07:09:06;7.80;98.50
21189;DHT22;39071;52.420;20.896;2022-11-03T07:11:38;7.90;1.00
21189;DHT22;39071;52.420;20.896;2022-11-03T07:14:15;8.00;1.00
21189;DHT22;39071;52.420;20.896;2022-11-03T07:16:51;8.20;99.90
21189;DHT22;39071;52.420;20.896;2022-11-03T07:19:18;8.40;1.00
21189;DHT22;39071;52.420;20.896;2022-11-03T07:22:13;8.70;99.90
21189;DHT22;39071;52.420;20.896;2022-11-03T07:24:37;9.10;16.20
21189;DHT22;39071;52.420;20.896;2022-11-03T07:27:26;9.50;1.00
21189;DHT22;39071;52.420;20.896;2022-11-03T07:30:05;10.30;1.00
21189;DHT22;39071;52.420;20.896;2022-11-03T07:32:35;11.20;1.00
21189;DHT22;39071;52.420;20.896;2022-11-03T07:35:24;12.00;99.90
21189;DHT22;39071;52.420;20.896;2022-11-03T07:37:51;12.60;99.90
21189;DHT22;39071;52.420;20.896;2022-11-03T07:40:24;13.00;99.90
21189;DHT22;39071;52.420;20.896;2022-11-03T07:42:51;13.40;99.90
21189;DHT22;39071;52.420;20.896;2022-11-03T07:45:49;13.80;94.10
21189;DHT22;39071;52.420;20.896;2022-11-03T07:50:54;15.10;1.00
21189;DHT22;39071;52.420;20.896;2022-11-03T07:53:41;15.70;1.00
21189;DHT22;39071;52.420;20.896;2022-11-03T07:56:22;16.20;1.00
21189;DHT22;39071;52.420;20.896;2022-11-03T07:58:59;16.70;1.00
21189;DHT22;39071;52.420;20.896;2022-11-03T08:01:28;17.20;1.00
21189;DHT22;39071;52.420;20.896;2022-11-03T08:04:05;17.60;1.00
21189;DHT22;39071;52.420;20.896;2022-11-03T08:06:33;17.80;1.00
21189;DHT22;39071;52.420;20.896;2022-11-03T08:08:58;18.10;1.00
21189;DHT22;39071;52.420;20.896;2022-11-03T08:11:24;18.20;1.00
21189;DHT22;39071;52.420;20.896;2022-11-03T08:13:50;18.40;1.00
21189;DHT22;39071;52.420;20.896;2022-11-03T08:16:17;18.50;1.00
21189;DHT22;39071;52.420;20.896;2022-11-03T08:18:42;18.60;1.00
21189;DHT22;39071;52.420;20.896;2022-11-03T08:21:08;18.60;1.00
21189;DHT22;39071;52.420;20.896;2022-11-03T08:23:34;18.50;1.00
21189;DHT22;39071;52.420;20.896;2022-11-03T08:26:00;18.50;1.00
21189;DHT22;39071;52.420;20.896;2022-11-03T08:28:25;18.50;1.00
21189;DHT22;39071;52.420;20.896;2022-11-03T08:30:51;18.50;1.00
21189;DHT22;39071;52.420;20.896;2022-11-03T08:33:17;18.60;1.00
21189;DHT22;39071;52.420;20.896;2022-11-03T08:35:43;18.50;1.00
21189;DHT22;39071;52.420;20.896;2022-11-03T08:38:08;18.60;1.00
21189;DHT22;39071;52.420;20.896;2022-11-03T08:40:34;18.50;1.00
21189;DHT22;39071;52.420;20.896;2022-11-03T08:43:00;18.20;1.00
21189;DHT22;39071;52.420;20.896;2022-11-03T08:45:29;18.10;1.00
21189;DHT22;39071;52.420;20.896;2022-11-03T08:47:55;17.80;1.00
21189;DHT22;39071;52.420;20.896;2022-11-03T08:50:22;17.70;1.00
21189;DHT22;39071;52.420;20.896;2022-11-03T08:52:47;17.60;1.00
21189;DHT22;39071;52.420;20.896;2022-11-03T08:55:14;17.60;1.00
21189;DHT22;39071;52.420;20.896;2022-11-03T08:57:40;17.50;1.00
21189;DHT22;39071;52.420;20.896;2022-11-03T09:00:06;17.40;1.00
21189;DHT22;39071;52.420;20.896;2022-11-03T09:02:32;17.30;1.00
21189;DHT22;39071;52.420;20.896;2022-11-03T09:04:58;17.40;1.00
21189;DHT22;39071;52.420;20.896;2022-11-03T09:07:24;17.40;1.00
21189;DHT22;39071;52.420;20.896;2022-11-03T09:09:49;17.50;1.00
21189;DHT22;39071;52.420;20.896;2022-11-03T09:12:15;17.20;1.00
21189;DHT22;39071;52.420;20.896;2022-11-03T09:14:41;17.20;1.00
21189;DHT22;39071;52.420;20.896;2022-11-03T09:17:07;17.20;1.00
21189;DHT22;39071;52.420;20.896;2022-11-03T09:19:33;17.10;1.00
21189;DHT22;39071;52.420;20.896;2022-11-03T09:21:58;17.00;1.00
21189;DHT22;39071;52.420;20.896;2022-11-03T09:24:25;17.00;1.00
21189;DHT22;39071;52.420;20.896;2022-11-03T09:26:51;17.10;1.00
21189;DHT22;39071;52.420;20.896;2022-11-03T09:29:16;17.00;1.00
21189;DHT22;39071;52.420;20.896;2022-11-03T09:31:42;16.90;1.00
21189;DHT22;39071;52.420;20.896;2022-11-03T09:34:08;17.10;1.00
21189;DHT22;39071;52.420;20.896;2022-11-03T09:36:34;17.20;1.00
21189;DHT22;39071;52.420;20.896;2022-11-03T09:38:59;17.10;1.00
21189;DHT22;39071;52.420;20.896;2022-11-03T09:41:25;17.20;1.00
21189;DHT22;39071;52.420;20.896;2022-11-03T09:43:51;17.20;1.00
21189;DHT22;39071;52.420;20.896;2022-11-03T09:46:18;17.20;1.00
21189;DHT22;39071;52.420;20.896;2022-11-03T09:48:44;17.10;1.00
21189;DHT22;39071;52.420;20.896;2022-11-03T09:51:15;17.30;1.00
21189;DHT22;39071;52.420;20.896;2022-11-03T09:53:42;17.40;1.00
21189;DHT22;39071;52.420;20.896;2022-11-03T09:56:09;17.50;1.00
21189;DHT22;39071;52.420;20.896;2022-11-03T09:58:35;17.60;1.00
21189;DHT22;39071;52.420;20.896;2022-11-03T10:01:01;17.50;1.00
21189;DHT22;39071;52.420;20.896;2022-11-03T10:03:27;17.60;1.00
21189;DHT22;39071;52.420;20.896;2022-11-03T10:05:53;17.70;1.00
21189;DHT22;39071;52.420;20.896;2022-11-03T10:10:50;17.90;1.00
21189;DHT22;39071;52.420;20.896;2022-11-03T10:13:28;18.00;1.00
21189;DHT22;39071;52.420;20.896;2022-11-03T10:15:59;18.00;1.00
21189;DHT22;39071;52.420;20.896;2022-11-03T10:18:26;18.00;1.00
21189;DHT22;39071;52.420;20.896;2022-11-03T10:20:52;18.10;1.00
21189;DHT22;39071;52.420;20.896;2022-11-03T10:23:18;18.10;1.00
21189;DHT22;39071;52.420;20.896;2022-11-03T10:25:44;18.10;1.00
21189;DHT22;39071;52.420;20.896;2022-11-03T10:28:19;18.10;1.00
21189;DHT22;39071;52.420;20.896;2022-11-03T10:33:37;17.90;1.00
21189;DHT22;39071;52.420;20.896;2022-11-03T10:36:26;18.00;1.00
21189;DHT22;39071;52.420;20.896;2022-11-03T10:38:52;17.90;1.00
21189;DHT22;39071;52.420;20.896;2022-11-03T10:41:19;17.90;1.00
21189;DHT22;39071;52.420;20.896;2022-11-03T10:44:07;17.90;1.00
21189;DHT22;39071;52.420;20.896;2022-11-03T10:47:01;17.90;1.00
21189;DHT22;39071;52.420;20.896;2022-11-03T10:49:31;18.00;1.00
21189;DHT22;39071;52.420;20.896;2022-11-03T10:54:38;18.10;1.00
21189;DHT22;39071;52.420;20.896;2022-11-03T10:57:04;18.00;1.00
21189;DHT22;39071;52.420;20.896;2022-11-03T10:59:32;18.10;1.00
21189;DHT22;39071;52.420;20.896;2022-11-03T11:01:59;18.00;1.00
21189;DHT22;39071;52.420;20.896;2022-11-03T11:04:26;18.00;1.00
21189;DHT22;39071;52.420;20.896;2022-11-03T11:06:52;18.00;1.00
21189;DHT22;39071;52.420;20.896;2022-11-03T11:09:26;18.00;1.00
21189;DHT22;39071;52.420;20.896;2022-11-03T11:12:01;18.10;1.00
21189;DHT22;39071;52.420;20.896;2022-11-03T11:16:55;18.10;1.00
21189;DHT22;39071;52.420;20.896;2022-11-03T11:19:22;18.00;1.00
21189;DHT22;39071;52.420;20.896;2022-11-03T11:30:04;17.90;1.00
21189;DHT22;39071;52.420;20.896;2022-11-03T11:35:15;17.70;1.00
21189;DHT22;39071;52.420;20.896;2022-11-03T11:37:42;17.60;1.00
21189;DHT22;39071;52.420;20.896;2022-11-03T11:48:34;17.60;1.00
21189;DHT22;39071;52.420;20.896;2022-11-03T11:51:01;17.50;1.00
21189;DHT22;39071;52.420;20.896;2022-11-03T11:53:38;17.50;1.00
21189;DHT22;39071;52.420;20.896;2022-11-03T11:56:11;17.40;1.00
21189;DHT22;39071;52.420;20.896;2022-11-03T11:58:43;17.30;1.00
21189;DHT22;39071;52.420;20.896;2022-11-03T12:01:31;17.20;1.00
21189;DHT22;39071;52.420;20.896;2022-11-03T12:04:05;17.10;1.00
21189;DHT22;39071;52.420;20.896;2022-11-03T12:09:15;17.00;1.00
21189;DHT22;39071;52.420;20.896;2022-11-03T12:11:46;16.90;1.00
21189;DHT22;39071;52.420;20.896;2022-11-03T12:16:54;16.80;1.00
21189;DHT22;39071;52.420;20.896;2022-11-03T12:19:42;16.90;1.00
21189;DHT22;39071;52.420;20.896;2022-11-03T12:29:53;16.90;1.00
21189;DHT22;39071;52.420;20.896;2022-11-03T12:32:20;16.80;1.00
21189;DHT22;39071;52.420;20.896;2022-11-03T12:34:45;16.70;1.00
21189;DHT22;39071;52.420;20.896;2022-11-03T12:37:11;16.70;1.00
21189;DHT22;39071;52.420;20.896;2022-11-03T12:39:37;16.60;1.00
21189;DHT22;39071;52.420;20.896;2022-11-03T12:42:03;16.50;1.00
21189;DHT22;39071;52.420;20.896;2022-11-03T12:44:30;16.40;1.00
21189;DHT22;39071;52.420;20.896;2022-11-03T12:46:55;16.40;1.00
21189;DHT22;39071;52.420;20.896;2022-11-03T12:49:21;16.30;1.00
21189;DHT22;39071;52.420;20.896;2022-11-03T12:51:47;16.20;1.00
21189;DHT22;39071;52.420;20.896;2022-11-03T12:54:12;16.20;1.00
21189;DHT22;39071;52.420;20.896;2022-11-03T12:56:38;16.20;1.00
21189;DHT22;39071;52.420;20.896;2022-11-03T12:59:04;16.10;1.00
21189;DHT22;39071;52.420;20.896;2022-11-03T13:01:29;16.00;1.00
21189;DHT22;39071;52.420;20.896;2022-11-03T13:03:55;16.00;1.00
21189;DHT22;39071;52.420;20.896;2022-11-03T13:06:21;15.90;1.00
21189;DHT22;39071;52.420;20.896;2022-11-03T13:08:46;15.70;1.00
21189;DHT22;39071;52.420;20.896;2022-11-03T13:11:14;15.60;1.00
21189;DHT22;39071;52.420;20.896;2022-11-03T13:13:58;15.70;1.00
21189;DHT22;39071;52.420;20.896;2022-11-03T13:16:24;15.60;1.00
21189;DHT22;39071;52.420;20.896;2022-11-03T13:18:50;15.60;1.00
21189;DHT22;39071;52.420;20.896;2022-11-03T13:21:16;15.70;1.00
21189;DHT22;39071;52.420;20.896;2022-11-03T13:23:42;15.70;1.00
21189;DHT22;39071;52.420;20.896;2022-11-03T13:26:08;15.70;1.00
21189;DHT22;39071;52.420;20.896;2022-11-03T13:28:34;15.80;1.00
21189;DHT22;39071;52.420;20.896;2022-11-03T13:30:59;15.80;1.00
21189;DHT22;39071;52.420;20.896;2022-11-03T13:33:25;15.80;1.00
21189;DHT22;39071;52.420;20.896;2022-11-03T13:35:51;15.80;1.00
21189;DHT22;39071;52.420;20.896;2022-11-03T13:38:18;15.80;1.00
21189;DHT22;39071;52.420;20.896;2022-11-03T13:40:44;15.70;1.00
21189;DHT22;39071;52.420;20.896;2022-11-03T13:43:09;15.70;1.00
21189;DHT22;39071;52.420;20.896;2022-11-03T13:45:36;15.70;1.00
21189;DHT22;39071;52.420;20.896;2022-11-03T13:48:01;15.70;1.00
21189;DHT22;39071;52.420;20.896;2022-11-03T13:50:27;15.70;1.00
21189;DHT22;39071;52.420;20.896;2022-11-03T13:52:53;15.70;1.00
21189;DHT22;39071;52.420;20.896;2022-11-03T13:55:18;15.60;1.00
21189;DHT22;39071;52.420;20.896;2022-11-03T13:57:44;15.60;1.00
21189;DHT22;39071;52.420;20.896;2022-11-03T14:00:11;15.50;1.00
21189;DHT22;39071;52.420;20.896;2022-11-03T14:02:41;15.50;1.00
21189;DHT22;39071;52.420;20.896;2022-11-03T14:05:08;15.40;1.00
21189;DHT22;39071;52.420;20.896;2022-11-03T14:07:35;15.30;1.00
21189;DHT22;39071;52.420;20.896;2022-11-03T14:10:01;15.20;1.00
21189;DHT22;39071;52.420;20.896;2022-11-03T14:12:27;15.10;1.00
21189;DHT22;39071;52.420;20.896;2022-11-03T14:15:03;15.10;1.00
21189;DHT22;39071;52.420;20.896;2022-11-03T14:17:29;15.00;1.00
21189;DHT22;39071;52.420;20.896;2022-11-03T14:19:55;14.90;1.00
21189;DHT22;39071;52.420;20.896;2022-11-03T14:22:22;14.80;1.00
21189;DHT22;39071;52.420;20.896;2022-11-03T14:24:49;14.70;1.00
21189;DHT22;39071;52.420;20.896;2022-11-03T14:27:16;14.70;1.00
21189;DHT22;39071;52.420;20.896;2022-11-03T14:29:43;14.50;1.00
21189;DHT22;39071;52.420;20.896;2022-11-03T14:32:12;14.40;1.00
21189;DHT22;39071;52.420;20.896;2022-11-03T14:34:38;14.40;1.00
21189;DHT22;39071;52.420;20.896;2022-11-03T14:37:04;14.20;1.00
21189;DHT22;39071;52.420;20.896;2022-11-03T14:39:30;14.10;1.00
21189;DHT22;39071;52.420;20.896;2022-11-03T14:41:55;13.90;1.00
21189;DHT22;39071;52.420;20.896;2022-11-03T14:44:35;13.80;1.00
21189;DHT22;39071;52.420;20.896;2022-11-03T14:47:02;13.60;1.00
21189;DHT22;39071;52.420;20.896;2022-11-03T14:49:30;13.40;1.00
21189;DHT22;39071;52.420;20.896;2022-11-03T14:51:56;13.30;1.00
21189;DHT22;39071;52.420;20.896;2022-11-03T14:54:23;13.20;1.00
21189;DHT22;39071;52.420;20.896;2022-11-03T14:56:49;13.10;1.00
21189;DHT22;39071;52.420;20.896;2022-11-03T14:59:14;12.90;1.00
21189;DHT22;39071;52.420;20.896;2022-11-03T15:01:41;12.80;1.00
21189;DHT22;39071;52.420;20.896;2022-11-03T15:04:06;12.60;1.00
21189;DHT22;39071;52.420;20.896;2022-11-03T15:06:33;12.50;1.00
21189;DHT22;39071;52.420;20.896;2022-11-03T15:08:59;12.40;1.00
21189;DHT22;39071;52.420;20.896;2022-11-03T15:11:25;12.20;1.00
21189;DHT22;39071;52.420;20.896;2022-11-03T15:13:51;12.10;1.00
21189;DHT22;39071;52.420;20.896;2022-11-03T15:16:16;11.90;1.00
21189;DHT22;39071;52.420;20.896;2022-11-03T15:18:42;11.80;1.00
21189;DHT22;39071;52.420;20.896;2022-11-03T15:21:09;11.70;1.00
21189;DHT22;39071;52.420;20.896;2022-11-03T15:23:35;11.50;1.00
21189;DHT22;39071;52.420;20.896;2022-11-03T15:26:01;11.40;29.40
21189;DHT22;39071;52.420;20.896;2022-11-03T15:28:27;11.30;61.50
21189;DHT22;39071;52.420;20.896;2022-11-03T15:30:52;11.10;90.20
21189;DHT22;39071;52.420;20.896;2022-11-03T15:33:18;11.00;89.90
21189;DHT22;39071;52.420;20.896;2022-11-03T15:35:44;10.90;99.90
21189;DHT22;39071;52.420;20.896;2022-11-03T15:38:10;10.80;99.90
21189;DHT22;39071;52.420;20.896;2022-11-03T15:40:36;10.70;99.90
21189;DHT22;39071;52.420;20.896;2022-11-03T15:43:01;10.60;99.90
21189;DHT22;39071;52.420;20.896;2022-11-03T15:45:27;10.50;99.90
21189;DHT22;39071;52.420;20.896;2022-11-03T15:47:53;10.40;99.90
21189;DHT22;39071;52.420;20.896;2022-11-03T15:50:18;10.30;99.90
21189;DHT22;39071;52.420;20.896;2022-11-03T15:52:45;10.20;99.90
21189;DHT22;39071;52.420;20.896;2022-11-03T15:55:10;10.10;99.90
21189;DHT22;39071;52.420;20.896;2022-11-03T15:57:36;9.90;99.90
21189;DHT22;39071;52.420;20.896;2022-11-03T16:00:03;9.90;99.90
21189;DHT22;39071;52.420;20.896;2022-11-03T16:02:31;9.80;99.90
21189;DHT22;39071;52.420;20.896;2022-11-03T16:04:57;9.70;99.90
21189;DHT22;39071;52.420;20.896;2022-11-03T16:07:22;9.70;99.90
21189;DHT22;39071;52.420;20.896;2022-11-03T16:09:48;9.60;99.90
21189;DHT22;39071;52.420;20.896;2022-11-03T16:12:14;9.40;99.90
21189;DHT22;39071;52.420;20.896;2022-11-03T16:14:40;9.40;99.90
21189;DHT22;39071;52.420;20.896;2022-11-03T16:17:05;9.30;99.90
21189;DHT22;39071;52.420;20.896;2022-11-03T16:19:31;9.20;99.90
21189;DHT22;39071;52.420;20.896;2022-11-03T16:21:57;9.10;1.00
21189;DHT22;39071;52.420;20.896;2022-11-03T16:24:23;9.00;1.00
21189;DHT22;39071;52.420;20.896;2022-11-03T16:26:49;8.90;1.00
21189;DHT22;39071;52.420;20.896;2022-11-03T16:29:17;8.70;1.00
21189;DHT22;39071;52.420;20.896;2022-11-03T16:31:43;8.70;1.00
21189;DHT22;39071;52.420;20.896;2022-11-03T16:34:11;8.60;1.00
21189;DHT22;39071;52.420;20.896;2022-11-03T16:36:37;8.50;1.00
21189;DHT22;39071;52.420;20.896;2022-11-03T16:39:02;8.40;1.00
21189;DHT22;39071;52.420;20.896;2022-11-03T16:41:28;8.40;1.00
21189;DHT22;39071;52.420;20.896;2022-11-03T16:43:55;8.30;1.00
21189;DHT22;39071;52.420;20.896;2022-11-03T16:46:20;8.30;1.00
21189;DHT22;39071;52.420;20.896;2022-11-03T16:48:46;8.20;1.00
21189;DHT22;39071;52.420;20.896;2022-11-03T16:51:12;8.10;1.00
21189;DHT22;39071;52.420;20.896;2022-11-03T16:53:38;8.10;1.00
21189;DHT22;39071;52.420;20.896;2022-11-03T16:56:04;8.00;1.00
21189;DHT22;39071;52.420;20.896;2022-11-03T16:58:29;7.90;1.00
21189;DHT22;39071;52.420;20.896;2022-11-03T17:00:55;7.80;1.00